sensor_id;sensor_type;location;lat;lon;timestamp;temperature;humidity
57242;DHT22;43095;53.302;5.786;2022-09-25T00:01:10;12.50;99.90
57242;DHT22;43095;53.302;5.786;2022-09-25T00:03:38;12.50;99.90
57242;DHT22;43095;53.302;5.786;2022-09-25T00:06:10;12.40;99.90
57242;DHT22;43095;53.302;5.786;2022-09-25T00:08:38;12.40;99.90
57242;DHT22;43095;53.302;5.786;2022-09-25T00:11:17;12.40;99.90
57242;DHT22;43095;53.302;5.786;2022-09-25T00:13:45;12.40;99.90
57242;DHT22;43095;53.302;5.786;2022-09-25T00:16:17;12.40;99.90
57242;DHT22;43095;53.302;5.786;2022-09-25T00:18:44;12.40;99.90
57242;DHT22;43095;53.302;5.786;2022-09-25T00:21:32;12.30;99.90
57242;DHT22;43095;53.302;5.786;2022-09-25T00:24:01;12.30;99.90
57242;DHT22;43095;53.302;5.786;2022-09-25T00:26:31;12.30;99.90
57242;DHT22;43095;53.302;5.786;2022-09-25T00:28:59;12.30;99.90
57242;DHT22;43095;53.302;5.786;2022-09-25T00:31:27;12.30;99.90
57242;DHT22;43095;53.302;5.786;2022-09-25T00:34:00;12.20;99.90
57242;DHT22;43095;53.302;5.786;2022-09-25T00:36:29;12.20;99.90
57242;DHT22;43095;53.302;5.786;2022-09-25T00:38:56;12.20;99.90
57242;DHT22;43095;53.302;5.786;2022-09-25T00:41:27;12.20;99.90
57242;DHT22;43095;53.302;5.786;2022-09-25T00:43:56;12.20;99.90
57242;DHT22;43095;53.302;5.786;2022-09-25T00:54:39;12.10;99.90
57242;DHT22;43095;53.302;5.786;2022-09-25T00:57:09;12.10;99.90
57242;DHT22;43095;53.302;5.786;2022-09-25T00:59:50;12.10;99.90
57242;DHT22;43095;53.302;5.786;2022-09-25T01:02:33;12.10;99.90
57242;DHT22;43095;53.302;5.786;2022-09-25T01:05:06;12.10;99.90
57242;DHT22;43095;53.302;5.786;2022-09-25T01:07:37;12.10;99.90
57242;DHT22;43095;53.302;5.786;2022-09-25T01:10:06;12.10;99.90
57242;DHT22;43095;53.302;5.786;2022-09-25T01:12:42;12.10;99.90
57242;DHT22;43095;53.302;5.786;2022-09-25T01:15:12;12.20;99.90
57242;DHT22;43095;53.302;5.786;2022-09-25T01:25:59;12.10;99.90
57242;DHT22;43095;53.302;5.786;2022-09-25T01:31:24;12.20;99.90
57242;DHT22;43095;53.302;5.786;2022-09-25T01:34:01;12.20;99.90
57242;DHT22;43095;53.302;5.786;2022-09-25T01:36:39;12.20;99.90
57242;DHT22;43095;53.302;5.786;2022-09-25T01:44:39;12.10;99.90
57242;DHT22;43095;53.302;5.786;2022-09-25T01:47:14;12.10;99.90
57242;DHT22;43095;53.302;5.786;2022-09-25T01:49:47;12.10;99.90
57242;DHT22;43095;53.302;5.786;2022-09-25T01:52:21;12.10;99.90
57242;DHT22;43095;53.302;5.786;2022-09-25T01:54:55;12.20;99.90
57242;DHT22;43095;53.302;5.786;2022-09-25T01:57:40;12.20;99.90
57242;DHT22;43095;53.302;5.786;2022-09-25T02:00:13;12.20;99.90
57242;DHT22;43095;53.302;5.786;2022-09-25T02:02:46;12.20;99.90
57242;DHT22;43095;53.302;5.786;2022-09-25T02:05:30;12.20;99.90
57242;DHT22;43095;53.302;5.786;2022-09-25T02:08:02;12.10;99.90
57242;DHT22;43095;53.302;5.786;2022-09-25T02:10:35;12.10;99.90
57242;DHT22;43095;53.302;5.786;2022-09-25T02:13:11;12.20;99.90
57242;DHT22;43095;53.302;5.786;2022-09-25T02:15:51;12.10;99.90
57242;DHT22;43095;53.302;5.786;2022-09-25T02:18:20;12.10;99.90
57242;DHT22;43095;53.302;5.786;2022-09-25T02:23:48;12.10;99.90
57242;DHT22;43095;53.302;5.786;2022-09-25T02:26:27;12.10;99.90
57242;DHT22;43095;53.302;5.786;2022-09-25T02:28:55;12.10;99.90
57242;DHT22;43095;53.302;5.786;2022-09-25T02:31:27;12.10;99.90
57242;DHT22;43095;53.302;5.786;2022-09-25T02:33:57;12.10;99.90
57242;DHT22;43095;53.302;5.786;2022-09-25T02:36:24;12.10;99.90
57242;DHT22;43095;53.302;5.786;2022-09-25T02:38:53;12.20;99.90
57242;DHT22;43095;53.302;5.786;2022-09-25T02:41:43;12.10;99.90
57242;DHT22;43095;53.302;5.786;2022-09-25T02:52:25;11.90;99.90
57242;DHT22;43095;53.302;5.786;2022-09-25T02:55:11;11.80;99.90
57242;DHT22;43095;53.302;5.786;2022-09-25T02:57:55;11.80;99.90
57242;DHT22;43095;53.302;5.786;2022-09-25T03:00:22;11.70;99.90
57242;DHT22;43095;53.302;5.786;2022-09-25T03:02:55;11.70;99.90
57242;DHT22;43095;53.302;5.786;2022-09-25T03:05:25;11.70;99.90
57242;DHT22;43095;53.302;5.786;2022-09-25T03:07:53;11.70;99.90
57242;DHT22;43095;53.302;5.786;2022-09-25T03:10:39;11.60;99.90
57242;DHT22;43095;53.302;5.786;2022-09-25T03:13:34;11.60;99.90
57242;DHT22;43095;53.302;5.786;2022-09-25T03:18:40;11.60;99.90
57242;DHT22;43095;53.302;5.786;2022-09-25T03:21:07;11.60;99.90
57242;DHT22;43095;53.302;5.786;2022-09-25T03:23:35;11.60;99.90
57242;DHT22;43095;53.302;5.786;2022-09-25T03:26:02;11.70;99.90
57242;DHT22;43095;53.302;5.786;2022-09-25T03:28:31;11.60;99.90
57242;DHT22;43095;53.302;5.786;2022-09-25T03:31:03;11.60;99.90
57242;DHT22;43095;53.302;5.786;2022-09-25T03:33:39;11.60;99.90
57242;DHT22;43095;53.302;5.786;2022-09-25T03:36:21;11.60;99.90
57242;DHT22;43095;53.302;5.786;2022-09-25T03:38:51;11.60;99.90
57242;DHT22;43095;53.302;5.786;2022-09-25T03:41:20;11.60;99.90
57242;DHT22;43095;53.302;5.786;2022-09-25T03:43:49;11.60;99.90
57242;DHT22;43095;53.302;5.786;2022-09-25T03:46:20;11.60;99.90
57242;DHT22;43095;53.302;5.786;2022-09-25T03:48:48;11.60;99.90
57242;DHT22;43095;53.302;5.786;2022-09-25T03:51:15;11.50;99.90
57242;DHT22;43095;53.302;5.786;2022-09-25T03:53:42;11.50;99.90
57242;DHT22;43095;53.302;5.786;2022-09-25T03:56:15;11.50;99.90
57242;DHT22;43095;53.302;5.786;2022-09-25T03:58:43;11.50;99.90
57242;DHT22;43095;53.302;5.786;2022-09-25T04:01:10;11.50;99.90
57242;DHT22;43095;53.302;5.786;2022-09-25T04:03:39;11.50;99.90
57242;DHT22;43095;53.302;5.786;2022-09-25T04:06:07;11.50;99.90
57242;DHT22;43095;53.302;5.786;2022-09-25T04:08:35;11.50;99.90
57242;DHT22;43095;53.302;5.786;2022-09-25T04:11:03;11.50;99.90
57242;DHT22;43095;53.302;5.786;2022-09-25T04:13:32;11.50;99.90
57242;DHT22;43095;53.302;5.786;2022-09-25T04:16:01;11.50;99.90
57242;DHT22;43095;53.302;5.786;2022-09-25T04:18:29;11.50;99.90
57242;DHT22;43095;53.302;5.786;2022-09-25T04:21:05;11.50;99.90
57242;DHT22;43095;53.302;5.786;2022-09-25T04:23:32;11.50;99.90
57242;DHT22;43095;53.302;5.786;2022-09-25T04:26:00;11.50;99.90
57242;DHT22;43095;53.302;5.786;2022-09-25T04:28:27;11.50;99.90
57242;DHT22;43095;53.302;5.786;2022-09-25T04:30:56;11.50;99.90
57242;DHT22;43095;53.302;5.786;2022-09-25T04:33:23;11.50;99.90
57242;DHT22;43095;53.302;5.786;2022-09-25T04:36:09;11.50;99.90
57242;DHT22;43095;53.302;5.786;2022-09-25T04:38:36;11.50;99.90
57242;DHT22;43095;53.302;5.786;2022-09-25T04:41:03;11.50;99.90
57242;DHT22;43095;53.302;5.786;2022-09-25T04:43:32;11.50;99.90
57242;DHT22;43095;53.302;5.786;2022-09-25T04:46:04;11.50;99.90
57242;DHT22;43095;53.302;5.786;2022-09-25T04:48:32;11.50;99.90
57242;DHT22;43095;53.302;5.786;2022-09-25T04:51:00;11.50;99.90
57242;DHT22;43095;53.302;5.786;2022-09-25T04:53:28;11.40;99.90
57242;DHT22;43095;53.302;5.786;2022-09-25T04:56:00;11.40;99.90
57242;DHT22;43095;53.302;5.786;2022-09-25T04:58:27;11.40;99.90
57242;DHT22;43095;53.302;5.786;2022-09-25T05:00:54;11.40;99.90
57242;DHT22;43095;53.302;5.786;2022-09-25T05:03:21;11.40;99.90
57242;DHT22;43095;53.302;5.786;2022-09-25T05:05:49;11.40;99.90
57242;DHT22;43095;53.302;5.786;2022-09-25T05:08:16;11.30;99.90
57242;DHT22;43095;53.302;5.786;2022-09-25T05:10:43;11.30;99.90
57242;DHT22;43095;53.302;5.786;2022-09-25T05:13:10;11.30;99.90
57242;DHT22;43095;53.302;5.786;2022-09-25T05:15:37;11.20;99.90
57242;DHT22;43095;53.302;5.786;2022-09-25T05:18:16;11.20;99.90
57242;DHT22;43095;53.302;5.786;2022-09-25T05:20:44;11.10;99.90
57242;DHT22;43095;53.302;5.786;2022-09-25T05:23:11;11.10;99.90
57242;DHT22;43095;53.302;5.786;2022-09-25T05:25:38;11.00;99.90
57242;DHT22;43095;53.302;5.786;2022-09-25T05:28:05;11.00;99.90
57242;DHT22;43095;53.302;5.786;2022-09-25T05:30:33;11.00;99.90
57242;DHT22;43095;53.302;5.786;2022-09-25T05:33:01;10.90;99.90
57242;DHT22;43095;53.302;5.786;2022-09-25T05:35:31;10.80;99.90
57242;DHT22;43095;53.302;5.786;2022-09-25T05:37:58;10.80;99.90
57242;DHT22;43095;53.302;5.786;2022-09-25T05:40:25;10.80;99.90
57242;DHT22;43095;53.302;5.786;2022-09-25T05:42:53;10.70;99.90
57242;DHT22;43095;53.302;5.786;2022-09-25T05:45:21;10.70;99.90
57242;DHT22;43095;53.302;5.786;2022-09-25T05:48:06;10.60;99.90
57242;DHT22;43095;53.302;5.786;2022-09-25T05:50:33;10.60;99.90
57242;DHT22;43095;53.302;5.786;2022-09-25T05:53:03;10.50;99.90
57242;DHT22;43095;53.302;5.786;2022-09-25T05:55:30;10.50;99.90
57242;DHT22;43095;53.302;5.786;2022-09-25T05:58:02;10.50;99.90
57242;DHT22;43095;53.302;5.786;2022-09-25T06:00:31;10.40;99.90
57242;DHT22;43095;53.302;5.786;2022-09-25T06:02:59;10.40;99.90
57242;DHT22;43095;53.302;5.786;2022-09-25T06:05:27;10.40;99.90
57242;DHT22;43095;53.302;5.786;2022-09-25T06:07:55;10.40;99.90
57242;DHT22;43095;53.302;5.786;2022-09-25T06:10:22;10.40;99.90
57242;DHT22;43095;53.302;5.786;2022-09-25T06:12:55;10.40;99.90
57242;DHT22;43095;53.302;5.786;2022-09-25T06:15:29;10.40;99.90
57242;DHT22;43095;53.302;5.786;2022-09-25T06:18:01;10.40;99.90
57242;DHT22;43095;53.302;5.786;2022-09-25T06:20:28;10.40;99.90
57242;DHT22;43095;53.302;5.786;2022-09-25T06:22:56;10.30;99.90
57242;DHT22;43095;53.302;5.786;2022-09-25T06:25:27;10.40;99.90
57242;DHT22;43095;53.302;5.786;2022-09-25T06:27:55;10.40;99.90
57242;DHT22;43095;53.302;5.786;2022-09-25T06:30:23;10.40;99.90
57242;DHT22;43095;53.302;5.786;2022-09-25T06:32:57;10.40;99.90
57242;DHT22;43095;53.302;5.786;2022-09-25T06:35:24;10.50;99.90
57242;DHT22;43095;53.302;5.786;2022-09-25T06:37:55;10.60;99.90
57242;DHT22;43095;53.302;5.786;2022-09-25T06:40:26;10.60;99.90
57242;DHT22;43095;53.302;5.786;2022-09-25T06:43:02;10.70;99.90
57242;DHT22;43095;53.302;5.786;2022-09-25T06:45:31;10.80;99.90
57242;DHT22;43095;53.302;5.786;2022-09-25T06:48:13;10.80;99.90
57242;DHT22;43095;53.302;5.786;2022-09-25T06:50:42;10.80;99.90
57242;DHT22;43095;53.302;5.786;2022-09-25T06:53:10;10.90;99.90
57242;DHT22;43095;53.302;5.786;2022-09-25T06:55:37;10.90;99.90
57242;DHT22;43095;53.302;5.786;2022-09-25T06:58:06;11.00;99.90
57242;DHT22;43095;53.302;5.786;2022-09-25T07:00:34;11.10;99.90
57242;DHT22;43095;53.302;5.786;2022-09-25T07:03:01;11.10;99.90
57242;DHT22;43095;53.302;5.786;2022-09-25T07:05:47;11.20;99.90
57242;DHT22;43095;53.302;5.786;2022-09-25T07:08:17;11.30;99.90
57242;DHT22;43095;53.302;5.786;2022-09-25T07:10:57;11.40;99.90
57242;DHT22;43095;53.302;5.786;2022-09-25T07:13:27;11.50;99.90
57242;DHT22;43095;53.302;5.786;2022-09-25T07:15:57;11.60;99.90
57242;DHT22;43095;53.302;5.786;2022-09-25T07:18:26;11.70;99.90
57242;DHT22;43095;53.302;5.786;2022-09-25T07:21:03;11.90;99.90
57242;DHT22;43095;53.302;5.786;2022-09-25T07:23:30;12.10;99.90
57242;DHT22;43095;53.302;5.786;2022-09-25T07:26:14;12.20;99.90
57242;DHT22;43095;53.302;5.786;2022-09-25T07:28:42;12.30;99.90
57242;DHT22;43095;53.302;5.786;2022-09-25T07:31:13;12.50;99.90
57242;DHT22;43095;53.302;5.786;2022-09-25T07:33:41;12.60;99.90
57242;DHT22;43095;53.302;5.786;2022-09-25T07:36:08;12.80;99.90
57242;DHT22;43095;53.302;5.786;2022-09-25T07:38:36;13.00;99.90
57242;DHT22;43095;53.302;5.786;2022-09-25T07:41:04;13.10;99.90
57242;DHT22;43095;53.302;5.786;2022-09-25T07:43:32;13.10;99.90
57242;DHT22;43095;53.302;5.786;2022-09-25T07:46:00;13.10;99.90
57242;DHT22;43095;53.302;5.786;2022-09-25T07:48:27;13.00;99.90
57242;DHT22;43095;53.302;5.786;2022-09-25T07:51:05;13.10;99.90
57242;DHT22;43095;53.302;5.786;2022-09-25T07:53:32;13.10;99.90
57242;DHT22;43095;53.302;5.786;2022-09-25T07:56:00;13.20;99.90
57242;DHT22;43095;53.302;5.786;2022-09-25T07:58:33;13.30;99.90
57242;DHT22;43095;53.302;5.786;2022-09-25T08:01:03;13.30;99.90
57242;DHT22;43095;53.302;5.786;2022-09-25T08:03:31;13.40;99.90
57242;DHT22;43095;53.302;5.786;2022-09-25T08:06:09;13.40;99.90
57242;DHT22;43095;53.302;5.786;2022-09-25T08:08:38;13.50;99.90
57242;DHT22;43095;53.302;5.786;2022-09-25T08:11:11;13.50;99.90
57242;DHT22;43095;53.302;5.786;2022-09-25T08:13:40;13.50;99.90
57242;DHT22;43095;53.302;5.786;2022-09-25T08:16:13;13.50;99.90
57242;DHT22;43095;53.302;5.786;2022-09-25T08:18:44;13.60;99.90
57242;DHT22;43095;53.302;5.786;2022-09-25T08:21:14;13.60;99.90
57242;DHT22;43095;53.302;5.786;2022-09-25T08:23:42;13.60;99.90
57242;DHT22;43095;53.302;5.786;2022-09-25T08:26:18;13.70;99.90
57242;DHT22;43095;53.302;5.786;2022-09-25T08:28:46;13.70;99.90
57242;DHT22;43095;53.302;5.786;2022-09-25T08:31:14;13.70;99.90
57242;DHT22;43095;53.302;5.786;2022-09-25T08:33:46;13.80;99.90
57242;DHT22;43095;53.302;5.786;2022-09-25T08:36:13;13.90;99.90
57242;DHT22;43095;53.302;5.786;2022-09-25T08:38:41;14.00;99.90
57242;DHT22;43095;53.302;5.786;2022-09-25T08:41:22;14.00;99.90
57242;DHT22;43095;53.302;5.786;2022-09-25T08:46:42;13.90;99.90
57242;DHT22;43095;53.302;5.786;2022-09-25T08:49:34;14.00;99.90
57242;DHT22;43095;53.302;5.786;2022-09-25T08:52:05;14.00;99.90
57242;DHT22;43095;53.302;5.786;2022-09-25T08:54:34;14.10;99.90
57242;DHT22;43095;53.302;5.786;2022-09-25T08:57:52;14.20;99.90
57242;DHT22;43095;53.302;5.786;2022-09-25T09:00:05;14.30;99.90
57242;DHT22;43095;53.302;5.786;2022-09-25T09:02:43;14.30;99.90
57242;DHT22;43095;53.302;5.786;2022-09-25T09:05:33;14.30;99.90
57242;DHT22;43095;53.302;5.786;2022-09-25T09:08:26;14.30;99.90
57242;DHT22;43095;53.302;5.786;2022-09-25T09:13:48;14.40;99.90
57242;DHT22;43095;53.302;5.786;2022-09-25T09:16:45;14.40;99.90
57242;DHT22;43095;53.302;5.786;2022-09-25T09:19:14;14.50;99.90
57242;DHT22;43095;53.302;5.786;2022-09-25T09:21:56;14.50;99.90
57242;DHT22;43095;53.302;5.786;2022-09-25T09:32:48;14.90;99.90
57242;DHT22;43095;53.302;5.786;2022-09-25T09:36:01;15.00;99.90
57242;DHT22;43095;53.302;5.786;2022-09-25T09:49:38;15.50;99.90
57242;DHT22;43095;53.302;5.786;2022-09-25T09:52:08;15.60;99.90
57242;DHT22;43095;53.302;5.786;2022-09-25T09:54:45;15.60;99.90
57242;DHT22;43095;53.302;5.786;2022-09-25T10:00:17;15.80;99.90
57242;DHT22;43095;53.302;5.786;2022-09-25T10:02:58;16.00;99.90
57242;DHT22;43095;53.302;5.786;2022-09-25T10:07:56;15.50;99.90
57242;DHT22;43095;53.302;5.786;2022-09-25T10:10:33;15.10;99.90
57242;DHT22;43095;53.302;5.786;2022-09-25T10:13:01;14.90;99.90
57242;DHT22;43095;53.302;5.786;2022-09-25T10:15:40;14.60;99.90
57242;DHT22;43095;53.302;5.786;2022-09-25T10:18:09;14.50;99.90
57242;DHT22;43095;53.302;5.786;2022-09-25T10:20:44;14.40;99.90
57242;DHT22;43095;53.302;5.786;2022-09-25T10:26:27;14.30;99.90
57242;DHT22;43095;53.302;5.786;2022-09-25T10:28:57;14.30;99.90
57242;DHT22;43095;53.302;5.786;2022-09-25T10:31:31;14.30;99.90
57242;DHT22;43095;53.302;5.786;2022-09-25T10:36:52;14.30;99.90
57242;DHT22;43095;53.302;5.786;2022-09-25T10:42:39;14.40;99.90
57242;DHT22;43095;53.302;5.786;2022-09-25T10:45:29;14.50;99.90
57242;DHT22;43095;53.302;5.786;2022-09-25T10:47:57;14.60;99.90
57242;DHT22;43095;53.302;5.786;2022-09-25T10:50:43;14.90;99.90
57242;DHT22;43095;53.302;5.786;2022-09-25T10:53:27;15.20;99.90
57242;DHT22;43095;53.302;5.786;2022-09-25T10:56:08;15.50;99.90
57242;DHT22;43095;53.302;5.786;2022-09-25T10:58:41;15.80;99.90
57242;DHT22;43095;53.302;5.786;2022-09-25T11:01:10;16.10;99.90
57242;DHT22;43095;53.302;5.786;2022-09-25T11:06:29;16.80;99.90
57242;DHT22;43095;53.302;5.786;2022-09-25T11:11:40;17.30;99.90
57242;DHT22;43095;53.302;5.786;2022-09-25T11:14:32;17.50;99.90
57242;DHT22;43095;53.302;5.786;2022-09-25T11:17:02;17.80;99.90
57242;DHT22;43095;53.302;5.786;2022-09-25T11:19:34;18.00;99.90
57242;DHT22;43095;53.302;5.786;2022-09-25T11:22:32;17.90;99.90
57242;DHT22;43095;53.302;5.786;2022-09-25T11:25:12;18.10;99.90
57242;DHT22;43095;53.302;5.786;2022-09-25T11:27:46;18.30;97.30
57242;DHT22;43095;53.302;5.786;2022-09-25T11:30:20;18.60;99.90
57242;DHT22;43095;53.302;5.786;2022-09-25T11:35:45;18.90;91.10
57242;DHT22;43095;53.302;5.786;2022-09-25T11:41:28;19.40;90.70
57242;DHT22;43095;53.302;5.786;2022-09-25T11:44:37;19.60;85.40
57242;DHT22;43095;53.302;5.786;2022-09-25T11:47:17;19.50;73.80
57242;DHT22;43095;53.302;5.786;2022-09-25T11:49:48;19.40;69.90
57242;DHT22;43095;53.302;5.786;2022-09-25T11:52:37;19.60;77.00
57242;DHT22;43095;53.302;5.786;2022-09-25T12:06:17;20.70;70.00
57242;DHT22;43095;53.302;5.786;2022-09-25T12:11:55;20.70;66.60
57242;DHT22;43095;53.302;5.786;2022-09-25T12:22:56;20.00;64.50
57242;DHT22;43095;53.302;5.786;2022-09-25T12:25:55;19.60;68.40
57242;DHT22;43095;53.302;5.786;2022-09-25T12:31:25;19.70;72.00
57242;DHT22;43095;53.302;5.786;2022-09-25T12:36:39;20.70;71.90
57242;DHT22;43095;53.302;5.786;2022-09-25T12:41:58;21.10;65.90
57242;DHT22;43095;53.302;5.786;2022-09-25T12:47:08;20.70;62.90
57242;DHT22;43095;53.302;5.786;2022-09-25T12:52:16;21.10;62.00
57242;DHT22;43095;53.302;5.786;2022-09-25T12:54:58;21.30;61.30
57242;DHT22;43095;53.302;5.786;2022-09-25T13:00:24;21.80;57.40
57242;DHT22;43095;53.302;5.786;2022-09-25T13:03:14;21.50;57.40
57242;DHT22;43095;53.302;5.786;2022-09-25T13:06:07;22.00;55.20
57242;DHT22;43095;53.302;5.786;2022-09-25T13:08:50;21.90;53.60
57242;DHT22;43095;53.302;5.786;2022-09-25T13:14:02;22.00;54.60
57242;DHT22;43095;53.302;5.786;2022-09-25T13:16:31;21.90;55.90
57242;DHT22;43095;53.302;5.786;2022-09-25T13:19:10;22.00;55.90
57242;DHT22;43095;53.302;5.786;2022-09-25T13:21:39;21.90;55.10
57242;DHT22;43095;53.302;5.786;2022-09-25T13:24:13;22.10;54.80
57242;DHT22;43095;53.302;5.786;2022-09-25T13:26:53;22.20;54.40
57242;DHT22;43095;53.302;5.786;2022-09-25T13:29:27;21.50;55.40
57242;DHT22;43095;53.302;5.786;2022-09-25T13:32:17;21.90;56.30
57242;DHT22;43095;53.302;5.786;2022-09-25T13:34:45;22.30;55.40
57242;DHT22;43095;53.302;5.786;2022-09-25T13:37:14;22.30;53.60
57242;DHT22;43095;53.302;5.786;2022-09-25T13:39:45;21.50;54.40
57242;DHT22;43095;53.302;5.786;2022-09-25T13:42:38;21.70;54.10
57242;DHT22;43095;53.302;5.786;2022-09-25T13:45:25;21.60;54.30
57242;DHT22;43095;53.302;5.786;2022-09-25T14:02:25;20.80;56.20
57242;DHT22;43095;53.302;5.786;2022-09-25T14:04:59;20.40;55.50
57242;DHT22;43095;53.302;5.786;2022-09-25T14:07:26;20.70;56.80
57242;DHT22;43095;53.302;5.786;2022-09-25T14:09:56;20.00;57.50
57242;DHT22;43095;53.302;5.786;2022-09-25T14:12:43;20.50;57.60
57242;DHT22;43095;53.302;5.786;2022-09-25T14:15:30;20.30;57.10
57242;DHT22;43095;53.302;5.786;2022-09-25T14:18:01;20.90;56.70
57242;DHT22;43095;53.302;5.786;2022-09-25T14:20:32;20.50;56.70
57242;DHT22;43095;53.302;5.786;2022-09-25T14:25:39;19.70;58.90
57242;DHT22;43095;53.302;5.786;2022-09-25T14:28:28;19.30;59.50
57242;DHT22;43095;53.302;5.786;2022-09-25T14:31:11;19.10;61.10
57242;DHT22;43095;53.302;5.786;2022-09-25T14:37:00;18.60;64.10
57242;DHT22;43095;53.302;5.786;2022-09-25T14:45:24;17.80;66.90
57242;DHT22;43095;53.302;5.786;2022-09-25T14:47:57;17.60;68.50
57242;DHT22;43095;53.302;5.786;2022-09-25T14:50:29;17.40;69.20
57242;DHT22;43095;53.302;5.786;2022-09-25T14:53:00;17.40;70.40
57242;DHT22;43095;53.302;5.786;2022-09-25T14:55:39;17.30;71.50
57242;DHT22;43095;53.302;5.786;2022-09-25T14:58:09;17.20;72.30
57242;DHT22;43095;53.302;5.786;2022-09-25T15:00:46;17.00;73.80
57242;DHT22;43095;53.302;5.786;2022-09-25T15:03:16;16.90;76.20
57242;DHT22;43095;53.302;5.786;2022-09-25T15:05:47;16.90;77.20
57242;DHT22;43095;53.302;5.786;2022-09-25T15:08:36;16.80;77.50
57242;DHT22;43095;53.302;5.786;2022-09-25T15:11:12;16.70;81.20
57242;DHT22;43095;53.302;5.786;2022-09-25T15:13:40;16.60;78.90
57242;DHT22;43095;53.302;5.786;2022-09-25T15:16:26;16.60;81.10
57242;DHT22;43095;53.302;5.786;2022-09-25T15:19:37;16.50;81.50
57242;DHT22;43095;53.302;5.786;2022-09-25T15:22:11;16.40;83.60
57242;DHT22;43095;53.302;5.786;2022-09-25T15:24:50;16.40;86.20
57242;DHT22;43095;53.302;5.786;2022-09-25T15:27:21;16.40;91.60
57242;DHT22;43095;53.302;5.786;2022-09-25T15:29:49;16.40;95.00
57242;DHT22;43095;53.302;5.786;2022-09-25T15:32:20;16.40;96.90
57242;DHT22;43095;53.302;5.786;2022-09-25T15:34:48;16.40;96.90
57242;DHT22;43095;53.302;5.786;2022-09-25T15:37:25;16.30;97.60
57242;DHT22;43095;53.302;5.786;2022-09-25T15:39:54;16.10;98.50
57242;DHT22;43095;53.302;5.786;2022-09-25T15:42:21;15.90;98.70
57242;DHT22;43095;53.302;5.786;2022-09-25T15:44:49;15.90;98.60
57242;DHT22;43095;53.302;5.786;2022-09-25T15:50:03;15.70;99.90
57242;DHT22;43095;53.302;5.786;2022-09-25T15:52:32;15.60;99.90
57242;DHT22;43095;53.302;5.786;2022-09-25T15:55:05;15.60;99.90
57242;DHT22;43095;53.302;5.786;2022-09-25T15:57:32;15.60;99.90
57242;DHT22;43095;53.302;5.786;2022-09-25T16:00:06;15.60;99.90
57242;DHT22;43095;53.302;5.786;2022-09-25T16:02:58;15.60;99.90
57242;DHT22;43095;53.302;5.786;2022-09-25T16:05:48;15.50;99.90
57242;DHT22;43095;53.302;5.786;2022-09-25T16:16:26;15.60;99.90
57242;DHT22;43095;53.302;5.786;2022-09-25T16:18:57;15.70;99.90
57242;DHT22;43095;53.302;5.786;2022-09-25T16:21:32;15.70;99.90
57242;DHT22;43095;53.302;5.786;2022-09-25T16:24:02;15.70;99.90
57242;DHT22;43095;53.302;5.786;2022-09-25T16:26:40;15.60;99.90
57242;DHT22;43095;53.302;5.786;2022-09-25T16:31:39;15.40;99.90
57242;DHT22;43095;53.302;5.786;2022-09-25T16:34:18;15.30;99.90
57242;DHT22;43095;53.302;5.786;2022-09-25T16:36:53;15.20;99.90
57242;DHT22;43095;53.302;5.786;2022-09-25T16:39:33;15.10;99.90
57242;DHT22;43095;53.302;5.786;2022-09-25T16:45:02;14.80;99.90
57242;DHT22;43095;53.302;5.786;2022-09-25T16:47:30;14.70;99.90
57242;DHT22;43095;53.302;5.786;2022-09-25T16:49:58;14.70;99.90
57242;DHT22;43095;53.302;5.786;2022-09-25T16:52:26;14.60;99.90
57242;DHT22;43095;53.302;5.786;2022-09-25T16:54:54;14.50;99.90
57242;DHT22;43095;53.302;5.786;2022-09-25T16:57:25;14.50;99.90
57242;DHT22;43095;53.302;5.786;2022-09-25T16:59:54;14.40;99.90
57242;DHT22;43095;53.302;5.786;2022-09-25T17:02:41;14.40;99.90
57242;DHT22;43095;53.302;5.786;2022-09-25T17:05:19;14.30;99.90
57242;DHT22;43095;53.302;5.786;2022-09-25T17:07:51;14.20;99.90
57242;DHT22;43095;53.302;5.786;2022-09-25T17:10:21;14.10;99.90
57242;DHT22;43095;53.302;5.786;2022-09-25T17:12:50;14.00;99.90
57242;DHT22;43095;53.302;5.786;2022-09-25T17:15:22;14.00;99.90
57242;DHT22;43095;53.302;5.786;2022-09-25T17:17:51;14.00;99.90
57242;DHT22;43095;53.302;5.786;2022-09-25T17:20:22;13.90;99.90
57242;DHT22;43095;53.302;5.786;2022-09-25T17:22:51;13.90;99.90
57242;DHT22;43095;53.302;5.786;2022-09-25T17:25:44;13.90;99.90
57242;DHT22;43095;53.302;5.786;2022-09-25T17:28:14;13.90;99.90
57242;DHT22;43095;53.302;5.786;2022-09-25T17:30:42;13.80;99.90
57242;DHT22;43095;53.302;5.786;2022-09-25T17:33:15;13.80;99.90
57242;DHT22;43095;53.302;5.786;2022-09-25T17:38:15;13.70;99.90
57242;DHT22;43095;53.302;5.786;2022-09-25T17:40:45;13.70;99.90
57242;DHT22;43095;53.302;5.786;2022-09-25T17:43:13;13.50;99.90
57242;DHT22;43095;53.302;5.786;2022-09-25T17:45:58;13.50;99.90
57242;DHT22;43095;53.302;5.786;2022-09-25T17:48:28;13.50;99.90
57242;DHT22;43095;53.302;5.786;2022-09-25T17:51:02;13.30;99.90
57242;DHT22;43095;53.302;5.786;2022-09-25T17:53:32;13.30;99.90
57242;DHT22;43095;53.302;5.786;2022-09-25T17:56:00;13.20;99.90
57242;DHT22;43095;53.302;5.786;2022-09-25T17:58:28;13.10;99.90
57242;DHT22;43095;53.302;5.786;2022-09-25T18:00:58;13.00;99.90
57242;DHT22;43095;53.302;5.786;2022-09-25T18:03:25;12.90;99.90
57242;DHT22;43095;53.302;5.786;2022-09-25T18:05:54;12.90;99.90
57242;DHT22;43095;53.302;5.786;2022-09-25T18:08:21;12.80;99.90
57242;DHT22;43095;53.302;5.786;2022-09-25T18:10:52;12.80;99.90
57242;DHT22;43095;53.302;5.786;2022-09-25T18:13:19;12.80;99.90
57242;DHT22;43095;53.302;5.786;2022-09-25T18:15:52;12.70;99.90
57242;DHT22;43095;53.302;5.786;2022-09-25T18:18:19;12.70;99.90
57242;DHT22;43095;53.302;5.786;2022-09-25T18:20:46;12.70;99.90
57242;DHT22;43095;53.302;5.786;2022-09-25T18:23:35;12.70;99.90
57242;DHT22;43095;53.302;5.786;2022-09-25T18:26:06;12.70;99.90
57242;DHT22;43095;53.302;5.786;2022-09-25T18:28:34;12.70;99.90
57242;DHT22;43095;53.302;5.786;2022-09-25T18:31:01;12.60;99.90
57242;DHT22;43095;53.302;5.786;2022-09-25T18:33:29;12.70;99.90
57242;DHT22;43095;53.302;5.786;2022-09-25T18:35:56;12.70;99.90
57242;DHT22;43095;53.302;5.786;2022-09-25T18:38:23;12.70;99.90
57242;DHT22;43095;53.302;5.786;2022-09-25T18:40:51;12.70;99.90
57242;DHT22;43095;53.302;5.786;2022-09-25T18:43:18;12.80;99.90
57242;DHT22;43095;53.302;5.786;2022-09-25T18:45:48;12.70;99.90
57242;DHT22;43095;53.302;5.786;2022-09-25T18:48:18;12.70;99.90
57242;DHT22;43095;53.302;5.786;2022-09-25T18:50:47;12.70;99.90
57242;DHT22;43095;53.302;5.786;2022-09-25T18:53:15;12.70;99.90
57242;DHT22;43095;53.302;5.786;2022-09-25T18:55:44;12.70;99.90
57242;DHT22;43095;53.302;5.786;2022-09-25T18:58:11;12.60;99.90
57242;DHT22;43095;53.302;5.786;2022-09-25T19:00:39;12.60;99.90
57242;DHT22;43095;53.302;5.786;2022-09-25T19:03:06;12.60;99.90